RYR40CR LGAV-EPMO
Flight info
| Callsign | RYR40CR |
|---|---|
| Flight time | N/A |
| Altitude | 31000 |
| Route | KRO UT162 KOROS/N0441F320 UN133 GIKAS DCT ATFIR DCT SOF/N0437F340 DCT LOMOS DCT KENIN/N0436F350 DCT OGVET/N0430F340 L621 LIMVI |
| Aircraft | B738/M-SDE2E3FGHIRWXY/LB1 |
Departure
| Time | 2026-05-07 19:28 |
|---|---|
| Airport | Athens Eleftherios Venizelos International Airport (LGAV) |
Arrival
| Time | N/A |
|---|---|
| Airport | Warsaw Modlin Airport (EPMO) |
| Time | Latitude | Longitude | Altitude | Speed | Heading |
|---|---|---|---|---|---|
| 2026-05-07 19:13 | 37.93144 | 23.94369 | 300 ft | 0 kts | 216° |
| 2026-05-07 19:15 | 37.93148 | 23.94373 | 300 ft | 4 kts | 216° |
| 2026-05-07 19:15 | 37.93167 | 23.94391 | 301 ft | 2 kts | 217° |
| 2026-05-07 19:16 | 37.93188 | 23.94408 | 302 ft | 4 kts | 200° |
| 2026-05-07 19:16 | 37.93209 | 23.94411 | 304 ft | 4 kts | 135° |
| 2026-05-07 19:16 | 37.93224 | 23.94387 | 300 ft | 3 kts | 127° |
| 2026-05-07 19:16 | 37.93225 | 23.94384 | 301 ft | 1 kts | 127° |
| 2026-05-07 19:20 | 37.93217 | 23.94398 | 301 ft | 5 kts | 126° |
| 2026-05-07 19:20 | 37.93181 | 23.94460 | 300 ft | 11 kts | 127° |
| 2026-05-07 19:21 | 37.93133 | 23.94540 | 302 ft | 11 kts | 127° |
| 2026-05-07 19:21 | 37.93087 | 23.94620 | 300 ft | 11 kts | 126° |
| 2026-05-07 19:21 | 37.93064 | 23.94707 | 299 ft | 11 kts | 72° |
| 2026-05-07 19:21 | 37.93120 | 23.94779 | 301 ft | 14 kts | 37° |
| 2026-05-07 19:22 | 37.93217 | 23.94871 | 300 ft | 21 kts | 37° |
| 2026-05-07 19:22 | 37.93345 | 23.94993 | 299 ft | 23 kts | 37° |
| 2026-05-07 19:22 | 37.93472 | 23.95113 | 297 ft | 23 kts | 37° |
| 2026-05-07 19:22 | 37.93597 | 23.95231 | 296 ft | 22 kts | 37° |
| 2026-05-07 19:23 | 37.93728 | 23.95356 | 296 ft | 26 kts | 37° |
| 2026-05-07 19:23 | 37.93882 | 23.95502 | 297 ft | 29 kts | 37° |
| 2026-05-07 19:23 | 37.94038 | 23.95650 | 297 ft | 27 kts | 37° |
| 2026-05-07 19:23 | 37.94185 | 23.95790 | 298 ft | 25 kts | 37° |
| 2026-05-07 19:24 | 37.94327 | 23.95924 | 297 ft | 27 kts | 37° |
| 2026-05-07 19:24 | 37.94481 | 23.96071 | 299 ft | 27 kts | 37° |
| 2026-05-07 19:24 | 37.94629 | 23.96211 | 299 ft | 26 kts | 37° |
| 2026-05-07 19:24 | 37.94768 | 23.96342 | 299 ft | 24 kts | 37° |
| 2026-05-07 19:25 | 37.94898 | 23.96466 | 301 ft | 23 kts | 37° |
| 2026-05-07 19:25 | 37.95035 | 23.96596 | 301 ft | 26 kts | 37° |
| 2026-05-07 19:25 | 37.95173 | 23.96727 | 304 ft | 19 kts | 37° |
| 2026-05-07 19:25 | 37.95266 | 23.96814 | 304 ft | 13 kts | 37° |
| 2026-05-07 19:26 | 37.95297 | 23.96880 | 305 ft | 9 kts | 95° |
| 2026-05-07 19:26 | 37.95269 | 23.96945 | 305 ft | 8 kts | 126° |
| 2026-05-07 19:26 | 37.95235 | 23.97004 | 308 ft | 7 kts | 126° |
| 2026-05-07 19:26 | 37.95199 | 23.97025 | 309 ft | 6 kts | 194° |
| 2026-05-07 19:27 | 37.95178 | 23.97010 | 309 ft | 0 kts | 215° |
| 2026-05-07 19:27 | 37.95178 | 23.97009 | 309 ft | 0 kts | 215° |
| 2026-05-07 19:27 | 37.95105 | 23.96940 | 307 ft | 41 kts | 217° |
| 2026-05-07 19:27 | 37.94678 | 23.96534 | 298 ft | 111 kts | 217° |
| 2026-05-07 19:28 | 37.93900 | 23.95792 | 279 ft | 167 kts | 217° |
| 2026-05-07 19:28 | 37.92929 | 23.94877 | 900 ft | 171 kts | 217° |
| 2026-05-07 19:28 | 37.91993 | 23.94011 | 1870 ft | 162 kts | 210° |
| 2026-05-07 19:28 | 37.90927 | 23.93484 | 2510 ft | 174 kts | 202° |
| 2026-05-07 19:29 | 37.89806 | 23.92739 | 2943 ft | 195 kts | 209° |
| 2026-05-07 19:29 | 37.88542 | 23.91836 | 3273 ft | 213 kts | 207° |
| 2026-05-07 19:29 | 37.87208 | 23.90921 | 3690 ft | 229 kts | 207° |
| 2026-05-07 19:29 | 37.85734 | 23.89921 | 4228 ft | 243 kts | 207° |
| 2026-05-07 19:30 | 37.84242 | 23.88916 | 4951 ft | 248 kts | 207° |
| 2026-05-07 19:30 | 37.82713 | 23.87889 | 5761 ft | 249 kts | 208° |
| 2026-05-07 19:30 | 37.81166 | 23.86851 | 6498 ft | 254 kts | 208° |
| 2026-05-07 19:30 | 37.79535 | 23.85965 | 7232 ft | 256 kts | 192° |
| 2026-05-07 19:31 | 37.77744 | 23.85802 | 7923 ft | 262 kts | 176° |
| 2026-05-07 19:31 | 37.75944 | 23.86285 | 8616 ft | 268 kts | 162° |
| 2026-05-07 19:31 | 37.74102 | 23.86899 | 9076 ft | 282 kts | 167° |
| 2026-05-07 19:31 | 37.72355 | 23.88111 | 9635 ft | 295 kts | 137° |
| 2026-05-07 19:32 | 37.71170 | 23.90247 | 10309 ft | 303 kts | 113° |
| 2026-05-07 19:32 | 37.70724 | 23.92909 | 10568 ft | 324 kts | 88° |
| 2026-05-07 19:32 | 37.71245 | 23.95760 | 10763 ft | 345 kts | 64° |
| 2026-05-07 19:32 | 37.72536 | 23.98392 | 11024 ft | 361 kts | 49° |
| 2026-05-07 19:33 | 37.74224 | 24.00729 | 11571 ft | 367 kts | 43° |
| 2026-05-07 19:33 | 37.76057 | 24.02991 | 12236 ft | 371 kts | 41° |
| 2026-05-07 19:33 | 37.77933 | 24.05249 | 12892 ft | 375 kts | 40° |
| 2026-05-07 19:33 | 37.79884 | 24.07496 | 13385 ft | 383 kts | 40° |
| 2026-05-07 19:34 | 37.81858 | 24.09799 | 13983 ft | 388 kts | 40° |
| 2026-05-07 19:34 | 37.83821 | 24.12183 | 14596 ft | 391 kts | 42° |
| 2026-05-07 19:34 | 37.85751 | 24.14618 | 15211 ft | 394 kts | 43° |
| 2026-05-07 19:34 | 37.87673 | 24.17106 | 15804 ft | 397 kts | 43° |
| 2026-05-07 19:35 | 37.89599 | 24.19638 | 16373 ft | 401 kts | 44° |
| 2026-05-07 19:35 | 37.91527 | 24.22196 | 16940 ft | 404 kts | 44° |
| 2026-05-07 19:35 | 37.93485 | 24.24803 | 17501 ft | 408 kts | 44° |
| 2026-05-07 19:35 | 37.95446 | 24.27417 | 18051 ft | 411 kts | 44° |
| 2026-05-07 19:36 | 37.97427 | 24.30060 | 18555 ft | 415 kts | 44° |
| 2026-05-07 19:36 | 37.99417 | 24.32716 | 19045 ft | 417 kts | 44° |
| 2026-05-07 19:36 | 38.01429 | 24.35403 | 19540 ft | 420 kts | 44° |
| 2026-05-07 19:36 | 38.03421 | 24.38063 | 20016 ft | 423 kts | 44° |
| 2026-05-07 19:37 | 38.05454 | 24.40781 | 20490 ft | 426 kts | 44° |
| 2026-05-07 19:37 | 38.07502 | 24.43523 | 20939 ft | 430 kts | 44° |
| 2026-05-07 19:37 | 38.09568 | 24.46291 | 21389 ft | 433 kts | 44° |
| 2026-05-07 19:37 | 38.11647 | 24.49077 | 21849 ft | 436 kts | 44° |
| 2026-05-07 19:38 | 38.13742 | 24.51879 | 22248 ft | 439 kts | 42° |
| 2026-05-07 19:38 | 38.16055 | 24.54412 | 22634 ft | 439 kts | 32° |
| 2026-05-07 19:38 | 38.18659 | 24.56419 | 23038 ft | 438 kts | 23° |
| 2026-05-07 19:38 | 38.21466 | 24.57907 | 23447 ft | 437 kts | 14° |
| 2026-05-07 19:39 | 38.24383 | 24.59019 | 23825 ft | 439 kts | 12° |
| 2026-05-07 19:39 | 38.27320 | 24.60084 | 24186 ft | 440 kts | 12° |
| 2026-05-07 19:39 | 38.30281 | 24.61152 | 24594 ft | 441 kts | 12° |
| 2026-05-07 19:39 | 38.32235 | 24.61862 | 24855 ft | 441 kts | 12° |
| 2026-05-07 19:40 | 38.36187 | 24.63322 | 25362 ft | 443 kts | 12° |
| 2026-05-07 19:40 | 38.39151 | 24.64432 | 25718 ft | 444 kts | 12° |
| 2026-05-07 19:40 | 38.42118 | 24.65552 | 26063 ft | 446 kts | 11° |
| 2026-05-07 19:40 | 38.45097 | 24.66681 | 26412 ft | 447 kts | 11° |
| 2026-05-07 19:41 | 38.48083 | 24.67815 | 26765 ft | 448 kts | 11° |
| 2026-05-07 19:41 | 38.51069 | 24.68951 | 27091 ft | 449 kts | 11° |
| 2026-05-07 19:41 | 38.54073 | 24.70094 | 27406 ft | 451 kts | 11° |
| 2026-05-07 19:41 | 38.57089 | 24.71242 | 27722 ft | 452 kts | 11° |
| 2026-05-07 19:42 | 38.60108 | 24.72392 | 28028 ft | 454 kts | 11° |
| 2026-05-07 19:42 | 38.63106 | 24.73534 | 28325 ft | 455 kts | 11° |
| 2026-05-07 19:42 | 38.66145 | 24.74693 | 28608 ft | 457 kts | 11° |
| 2026-05-07 19:42 | 38.69193 | 24.75857 | 28933 ft | 457 kts | 11° |
| 2026-05-07 19:43 | 38.72234 | 24.77021 | 29377 ft | 455 kts | 11° |
| 2026-05-07 19:43 | 38.75259 | 24.78181 | 29871 ft | 452 kts | 11° |
| 2026-05-07 19:43 | 38.78263 | 24.79332 | 30311 ft | 449 kts | 10° |
| 2026-05-07 19:43 | 38.81251 | 24.80477 | 30675 ft | 447 kts | 10° |
| 2026-05-07 19:44 | 38.84228 | 24.81618 | 31078 ft | 444 kts | 9° |
| 2026-05-07 19:44 | 38.87174 | 24.82752 | 31523 ft | 440 kts | 8° |
| 2026-05-07 19:44 | 38.90091 | 24.83880 | 31973 ft | 436 kts | 8° |
| 2026-05-07 19:44 | 38.92982 | 24.85000 | 32393 ft | 432 kts | 7° |
| 2026-05-07 19:45 | 38.95852 | 24.86110 | 32769 ft | 429 kts | 7° |
| 2026-05-07 19:45 | 38.98699 | 24.87212 | 33138 ft | 426 kts | 6° |
| 2026-05-07 19:45 | 39.00578 | 24.87941 | 33405 ft | 424 kts | 6° |
| 2026-05-07 19:45 | 39.03387 | 24.89032 | 33822 ft | 420 kts | 5° |
| 2026-05-07 19:46 | 39.06175 | 24.90062 | 34195 ft | 410 kts | 359° |
| 2026-05-07 19:46 | 39.08932 | 24.90371 | 34446 ft | 389 kts | 347° |
| 2026-05-07 19:46 | 39.11579 | 24.90012 | 34678 ft | 378 kts | 340° |
| 2026-05-07 19:46 | 39.14082 | 24.89138 | 34883 ft | 367 kts | 329° |
| 2026-05-07 19:47 | 39.16376 | 24.87760 | 35091 ft | 363 kts | 327° |
| 2026-05-07 19:47 | 39.18645 | 24.86327 | 35237 ft | 364 kts | 327° |
| 2026-05-07 19:47 | 39.20925 | 24.84881 | 35345 ft | 366 kts | 327° |
| 2026-05-07 19:47 | 39.23221 | 24.83431 | 35467 ft | 368 kts | 327° |
| 2026-05-07 19:48 | 39.25522 | 24.81988 | 35648 ft | 367 kts | 327° |
| 2026-05-07 19:48 | 39.27823 | 24.80550 | 35879 ft | 366 kts | 327° |
| 2026-05-07 19:48 | 39.30076 | 24.79147 | 36099 ft | 365 kts | 328° |
| 2026-05-07 19:48 | 39.32370 | 24.77716 | 36094 ft | 368 kts | 328° |
| 2026-05-07 19:49 | 39.36983 | 24.74840 | 36113 ft | 366 kts | 327° |
| 2026-05-07 19:49 | 39.41555 | 24.71986 | 36107 ft | 363 kts | 327° |
| 2026-05-07 19:50 | 39.46098 | 24.69146 | 36107 ft | 361 kts | 327° |
| 2026-05-07 19:50 | 39.50636 | 24.66384 | 36112 ft | 363 kts | 331° |
| 2026-05-07 19:51 | 39.55382 | 24.64180 | 36118 ft | 365 kts | 333° |
| 2026-05-07 19:51 | 39.60183 | 24.62024 | 36114 ft | 366 kts | 332° |
| 2026-05-07 19:52 | 39.64997 | 24.59846 | 36117 ft | 367 kts | 332° |
| 2026-05-07 19:52 | 39.69818 | 24.57648 | 36116 ft | 368 kts | 332° |
| 2026-05-07 19:53 | 39.74669 | 24.55427 | 36116 ft | 370 kts | 332° |
| 2026-05-07 19:53 | 39.79537 | 24.53193 | 36118 ft | 372 kts | 332° |
| 2026-05-07 19:54 | 39.84425 | 24.50946 | 36115 ft | 373 kts | 332° |
| 2026-05-07 19:54 | 39.89325 | 24.48691 | 36117 ft | 374 kts | 332° |
| 2026-05-07 19:55 | 39.94206 | 24.46441 | 36116 ft | 375 kts | 332° |
| 2026-05-07 19:55 | 39.99117 | 24.44174 | 36118 ft | 375 kts | 332° |
| 2026-05-07 19:56 | 40.04040 | 24.41898 | 36116 ft | 375 kts | 332° |
| 2026-05-07 19:56 | 40.08950 | 24.39624 | 36114 ft | 374 kts | 332° |
| 2026-05-07 19:57 | 40.13856 | 24.37349 | 36101 ft | 374 kts | 332° |
| 2026-05-07 19:57 | 40.18752 | 24.35071 | 36136 ft | 374 kts | 332° |
| 2026-05-07 19:58 | 40.23662 | 24.32780 | 36106 ft | 376 kts | 332° |
| 2026-05-07 19:58 | 40.28595 | 24.30484 | 36115 ft | 376 kts | 332° |
| 2026-05-07 19:59 | 40.33539 | 24.28179 | 36115 ft | 377 kts | 332° |
| 2026-05-07 19:59 | 40.38487 | 24.25868 | 36107 ft | 377 kts | 332° |
| 2026-05-07 20:00 | 40.43429 | 24.23555 | 36102 ft | 377 kts | 332° |
| 2026-05-07 20:00 | 40.48369 | 24.21239 | 36103 ft | 376 kts | 332° |
| 2026-05-07 20:01 | 40.53273 | 24.18936 | 36104 ft | 376 kts | 332° |
| 2026-05-07 20:01 | 40.58197 | 24.16620 | 36105 ft | 375 kts | 332° |
| 2026-05-07 20:02 | 40.63111 | 24.14304 | 36101 ft | 375 kts | 332° |
| 2026-05-07 20:02 | 40.68021 | 24.11988 | 36097 ft | 374 kts | 332° |
| 2026-05-07 20:03 | 40.72930 | 24.09666 | 36106 ft | 375 kts | 332° |
| 2026-05-07 20:03 | 40.77863 | 24.07329 | 36109 ft | 378 kts | 332° |
| 2026-05-07 20:04 | 40.82816 | 24.04980 | 36088 ft | 379 kts | 332° |
| 2026-05-07 20:04 | 40.87785 | 24.02620 | 36096 ft | 380 kts | 332° |
| 2026-05-07 20:05 | 40.92751 | 24.00256 | 36105 ft | 383 kts | 332° |
| 2026-05-07 20:05 | 40.97792 | 23.97856 | 36104 ft | 384 kts | 332° |
| 2026-05-07 20:06 | 41.02822 | 23.95458 | 36097 ft | 384 kts | 332° |
| 2026-05-07 20:06 | 41.07571 | 23.93190 | 36103 ft | 383 kts | 332° |
| 2026-05-07 20:07 | 41.12580 | 23.90793 | 36094 ft | 382 kts | 332° |
| 2026-05-07 20:07 | 41.17568 | 23.88402 | 36110 ft | 381 kts | 332° |
| 2026-05-07 20:08 | 41.22572 | 23.85997 | 36108 ft | 382 kts | 331° |
| 2026-05-07 20:08 | 41.27596 | 23.83576 | 36107 ft | 385 kts | 332° |
| 2026-05-07 20:09 | 41.32652 | 23.81143 | 36106 ft | 388 kts | 332° |
| 2026-05-07 20:10 | 41.40282 | 23.77499 | 36112 ft | 393 kts | 335° |
| 2026-05-07 20:10 | 41.45681 | 23.75820 | 36122 ft | 401 kts | 339° |
| 2026-05-07 20:11 | 41.51162 | 23.74256 | 36130 ft | 403 kts | 339° |
| 2026-05-07 20:11 | 41.56660 | 23.72672 | 36121 ft | 405 kts | 339° |
| 2026-05-07 20:12 | 41.62181 | 23.71061 | 36127 ft | 406 kts | 339° |
| 2026-05-07 20:12 | 41.67719 | 23.69434 | 36132 ft | 407 kts | 339° |
| 2026-05-07 20:13 | 41.73263 | 23.67802 | 36134 ft | 409 kts | 339° |
| 2026-05-07 20:13 | 41.78781 | 23.66174 | 36141 ft | 408 kts | 339° |
| 2026-05-07 20:14 | 41.84334 | 23.64533 | 36141 ft | 409 kts | 339° |
| 2026-05-07 20:14 | 41.89897 | 23.62885 | 36129 ft | 410 kts | 340° |
| 2026-05-07 20:15 | 41.95478 | 23.61229 | 36142 ft | 411 kts | 340° |
| 2026-05-07 20:15 | 42.01084 | 23.59563 | 36125 ft | 412 kts | 340° |
| 2026-05-07 20:16 | 42.06699 | 23.57892 | 36145 ft | 414 kts | 340° |
| 2026-05-07 20:16 | 42.12309 | 23.56218 | 36147 ft | 416 kts | 340° |
| 2026-05-07 20:17 | 42.17996 | 23.54521 | 36123 ft | 415 kts | 340° |
| 2026-05-07 20:17 | 42.23589 | 23.52850 | 36138 ft | 414 kts | 340° |
| 2026-05-07 20:18 | 42.28697 | 23.51316 | 36122 ft | 416 kts | 341° |
| 2026-05-07 20:18 | 42.34184 | 23.49666 | 36114 ft | 418 kts | 341° |
| 2026-05-07 20:19 | 42.39868 | 23.47956 | 36116 ft | 419 kts | 341° |
| 2026-05-07 20:19 | 42.45532 | 23.46250 | 36107 ft | 419 kts | 341° |
| 2026-05-07 20:20 | 42.51237 | 23.44527 | 36112 ft | 421 kts | 341° |
| 2026-05-07 20:20 | 42.56961 | 23.42796 | 36113 ft | 423 kts | 341° |
| 2026-05-07 20:21 | 42.62721 | 23.41049 | 36112 ft | 424 kts | 341° |